createdAt,value
2018-07-28T09:11:44.365Z,100245.47
2018-07-28T09:14:13.552Z,100242.05
2018-07-28T09:16:42.598Z,100242.30
2018-07-28T09:19:11.691Z,100242.50
2018-07-28T09:21:40.808Z,100237.33
2018-07-28T09:24:09.890Z,100245.98
2018-07-28T09:26:38.999Z,100241.73
2018-07-28T09:29:08.081Z,100237.36
2018-07-28T09:31:37.168Z,100239.50
2018-07-28T09:34:06.545Z,100248.30
2018-07-28T09:36:35.444Z,100237.00
2018-07-28T09:39:08.073Z,100235.34
2018-07-28T09:41:37.270Z,100225.58
2018-07-28T09:44:06.534Z,100223.09
2018-07-28T09:46:35.726Z,100226.02
2018-07-28T09:49:04.817Z,100223.52
2018-07-28T09:51:33.897Z,100214.67
2018-07-28T09:54:03.054Z,100224.24
2018-07-28T09:56:31.509Z,100232.10
2018-07-28T09:59:00.598Z,100225.98
2018-07-28T10:01:29.691Z,100227.36
2018-07-28T10:03:58.137Z,100229.50
2018-07-28T10:06:27.294Z,100219.34
2018-07-28T10:08:56.396Z,100221.42
2018-07-28T10:11:25.469Z,100221.08
2018-07-28T10:13:54.582Z,100210.11
2018-07-28T10:16:23.676Z,100213.87
2018-07-28T10:18:52.760Z,100207.68
2018-07-28T10:21:21.873Z,100203.37
2018-07-28T10:23:50.963Z,100200.33
2018-07-28T10:26:20.077Z,100197.55
2018-07-28T10:28:49.173Z,100201.94
2018-07-28T10:31:18.321Z,100204.36
2018-07-28T10:33:47.475Z,100189.22
2018-07-28T10:36:16.631Z,100178.78
2018-07-28T10:38:45.764Z,100199.62
2018-07-28T10:41:14.964Z,100188.98
2018-07-28T10:43:44.118Z,100188.69
2018-07-28T10:46:13.240Z,100201.00
2018-07-28T10:48:42.387Z,100196.13
2018-07-28T10:51:11.524Z,100191.08
2018-07-28T10:53:40.617Z,100188.35
2018-07-28T10:56:09.714Z,100195.02
2018-07-28T10:58:38.784Z,100179.42
2018-07-28T11:01:08.070Z,100172.06
2018-07-28T11:03:37.250Z,100175.07
2018-07-28T11:06:07.058Z,100161.59
2018-07-28T11:08:36.225Z,100168.45
2018-07-28T11:11:05.415Z,100171.41
2018-07-28T11:13:34.614Z,100158.43
2018-07-28T11:16:03.740Z,100158.40
2018-07-28T11:18:32.853Z,100155.93
2018-07-28T11:21:02.065Z,100151.71
2018-07-28T11:23:47.045Z,100162.92
2018-07-28T11:26:16.227Z,100152.42
2018-07-28T11:28:45.286Z,100151.50
2018-07-28T11:31:31.975Z,100145.95
2018-07-28T11:34:18.244Z,100142.09
2018-07-28T11:37:04.672Z,100140.35
2018-07-28T11:39:50.937Z,100129.37
2018-07-28T11:42:37.289Z,100129.37
2018-07-28T11:45:13.288Z,100144.47
2018-07-28T11:47:42.406Z,100131.22
2018-07-28T11:50:11.641Z,100125.03
2018-07-28T11:52:41.110Z,100131.79
2018-07-28T11:55:10.259Z,100133.17
2018-07-28T11:57:39.321Z,100129.38
2018-07-28T12:00:10.211Z,100127.03
2018-07-28T12:02:39.593Z,100121.50
2018-07-28T12:05:08.929Z,100111.66
2018-07-28T12:07:38.037Z,100108.19
2018-07-28T12:10:08.862Z,100111.70
2018-07-28T12:12:38.131Z,100103.33
2018-07-28T12:15:07.830Z,100101.62
2018-07-28T12:17:36.960Z,100102.41
2018-07-28T12:20:06.453Z,100097.56
2018-07-28T12:22:35.405Z,100094.80
2018-07-28T12:25:04.718Z,100084.81
2018-07-28T12:27:33.865Z,100086.73
2018-07-28T12:30:03.013Z,100086.38
2018-07-28T12:32:32.093Z,100084.59
2018-07-28T12:35:01.235Z,100086.88
2018-07-28T12:37:30.258Z,100077.74
2018-07-28T12:39:59.481Z,100084.73
2018-07-28T12:42:28.618Z,100088.23
2018-07-28T12:44:57.721Z,100093.52
2018-07-28T12:47:26.829Z,100082.47
2018-07-28T12:49:56.034Z,100085.60
2018-07-28T12:52:25.268Z,100081.11
2018-07-28T12:54:58.201Z,100078.55
2018-07-28T12:57:27.529Z,100072.70
2018-07-28T12:59:56.728Z,100072.41
2018-07-28T13:02:25.930Z,100089.30
2018-07-28T13:04:55.030Z,100073.08
2018-07-28T13:07:24.121Z,100069.91
2018-07-28T13:09:53.357Z,100073.84
2018-07-28T13:12:22.465Z,100071.13
2018-07-28T13:14:51.545Z,100069.80
2018-07-28T13:17:20.694Z,100062.45
2018-07-28T13:19:49.769Z,100065.05
2018-07-28T13:22:18.912Z,100054.56
2018-07-28T13:24:48.030Z,100059.23
2018-07-28T13:27:17.116Z,100060.14
2018-07-28T13:29:46.266Z,100055.95
2018-07-28T13:32:15.374Z,100055.72
2018-07-28T13:34:44.551Z,100052.80
2018-07-28T13:37:13.770Z,100043.05
2018-07-28T13:39:42.865Z,100044.82
2018-07-28T13:42:11.999Z,100037.28
2018-07-28T13:44:41.070Z,100037.78
2018-07-28T13:47:10.191Z,100036.78
2018-07-28T13:49:39.363Z,100029.74
2018-07-28T13:52:08.490Z,100026.77
2018-07-28T13:54:37.602Z,100027.34
2018-07-28T13:57:06.934Z,100034.27
2018-07-28T13:59:36.047Z,100027.79
2018-07-28T14:02:05.193Z,100032.25
2018-07-28T14:04:34.272Z,100028.15
2018-07-28T14:07:03.440Z,100027.50
2018-07-28T14:09:32.539Z,100028.05
2018-07-28T14:12:01.653Z,100033.22
2018-07-28T14:14:30.744Z,100025.75
2018-07-28T14:16:59.833Z,100018.85
2018-07-28T14:19:28.925Z,100016.50
2018-07-28T14:21:58.033Z,100018.71
2018-07-28T14:24:27.126Z,100011.25
2018-07-28T14:26:56.217Z,100001.69
2018-07-28T14:29:25.371Z,100008.97
2018-07-28T14:31:54.453Z,100003.14
2018-07-28T14:34:23.606Z,100005.28
2018-07-28T14:36:52.849Z,100000.36
2018-07-28T14:39:22.010Z,100004.20
2018-07-28T14:41:51.083Z,99995.00
2018-07-28T14:44:20.192Z,99990.87
2018-07-28T14:46:49.303Z,99993.85
2018-07-28T14:49:18.385Z,99985.73
2018-07-28T14:51:47.565Z,99989.95
2018-07-28T14:54:16.705Z,99980.91
2018-07-28T14:56:45.873Z,99980.56
2018-07-28T14:59:14.961Z,99978.93
2018-07-28T15:01:44.186Z,99979.21
2018-07-28T15:04:13.277Z,99972.73
2018-07-28T15:06:42.432Z,99976.01
2018-07-28T15:09:11.869Z,99968.10
2018-07-28T15:11:40.957Z,99956.03
2018-07-28T15:14:10.054Z,99970.49
2018-07-28T15:16:39.150Z,99966.08
2018-07-28T15:19:08.271Z,99973.09
2018-07-28T15:21:37.504Z,99988.20
2018-07-28T15:24:06.629Z,99980.47
2018-07-28T15:26:35.827Z,99983.91
2018-07-28T15:29:04.991Z,99987.45
2018-07-28T15:31:34.101Z,99993.31
2018-07-28T15:34:03.282Z,99984.88
2018-07-28T15:36:32.396Z,99987.60
2018-07-28T15:39:01.510Z,99996.95
2018-07-28T15:41:30.646Z,99994.43
2018-07-28T15:43:59.757Z,99987.73
2018-07-28T15:46:28.945Z,99981.89
2018-07-28T15:48:58.146Z,99995.97
2018-07-28T15:51:27.270Z,99992.05
2018-07-28T15:53:56.506Z,99988.73
2018-07-28T15:56:25.704Z,99995.17
2018-07-28T15:58:54.966Z,99993.38
2018-07-28T16:01:24.071Z,99987.83
2018-07-28T16:03:53.169Z,99991.66
2018-07-28T16:06:22.371Z,99999.86
2018-07-28T16:08:51.570Z,99996.22
2018-07-28T16:11:20.788Z,99996.69
2018-07-28T16:13:49.920Z,99994.48
2018-07-28T16:16:19.055Z,100000.25
2018-07-28T16:18:48.185Z,99997.77
2018-07-28T16:21:17.412Z,99997.35
2018-07-28T16:23:46.527Z,99990.45
2018-07-28T16:26:15.685Z,99989.59
2018-07-28T16:28:44.811Z,99983.74
2018-07-28T16:31:13.921Z,99984.83
2018-07-28T16:33:43.035Z,99980.82
2018-07-28T16:36:12.218Z,99977.01
2018-07-28T16:38:41.380Z,99978.14
2018-07-28T16:41:10.538Z,99976.92
2018-07-28T16:43:39.685Z,99972.37
2018-07-28T16:46:08.781Z,99977.28
2018-07-28T16:48:37.886Z,99978.63
2018-07-28T16:51:07.096Z,99976.42
2018-07-28T16:53:36.171Z,99975.88
2018-07-28T16:56:05.639Z,99974.93
2018-07-28T16:58:34.764Z,99975.84
2018-07-28T17:01:03.923Z,99975.42
2018-07-28T17:03:33.082Z,99978.66
2018-07-28T17:06:02.134Z,99981.35
2018-07-28T17:08:31.249Z,99989.22
2018-07-28T17:11:00.457Z,99988.40
2018-07-28T17:13:29.388Z,99990.71
2018-07-28T17:15:58.555Z,99987.25
2018-07-28T17:18:27.681Z,99985.01
2018-07-28T17:20:56.756Z,99980.39
2018-07-28T17:23:25.869Z,99976.63
2018-07-28T17:25:54.999Z,99999.73
2018-07-28T17:28:24.117Z,100055.09
2018-07-28T17:30:53.318Z,100050.83
2018-07-28T17:33:22.414Z,100076.70
2018-07-28T17:35:51.570Z,100109.83
2018-07-28T17:38:20.671Z,100129.75
2018-07-28T17:40:49.824Z,100168.55
2018-07-28T17:43:19.133Z,100179.16
2018-07-28T17:45:48.329Z,100212.59
2018-07-28T17:48:17.446Z,100214.80
2018-07-28T17:50:46.538Z,100209.95
2018-07-28T17:53:15.738Z,100196.25
2018-07-28T17:55:44.835Z,100182.77
2018-07-28T17:58:14.035Z,100164.24
2018-07-28T18:00:43.112Z,100144.61
2018-07-28T18:03:12.222Z,100164.14
2018-07-28T18:05:41.627Z,100173.72
2018-07-28T18:08:10.810Z,100169.05
2018-07-28T18:10:39.978Z,100150.48
2018-07-28T18:13:09.131Z,100156.25
2018-07-28T18:15:38.261Z,100150.70
2018-07-28T18:18:07.361Z,100143.36
2018-07-28T18:20:36.461Z,100130.69
2018-07-28T18:23:06.211Z,100131.64
2018-07-28T18:25:35.410Z,100119.32
2018-07-28T18:28:04.561Z,100121.38
2018-07-28T18:30:33.763Z,100115.91
2018-07-28T18:33:02.826Z,100118.42
2018-07-28T18:35:31.983Z,100126.82
2018-07-28T18:38:01.098Z,100138.81
2018-07-28T18:40:30.218Z,100137.41
2018-07-28T18:42:59.357Z,100145.94
2018-07-28T18:45:28.499Z,100153.17
2018-07-28T18:47:57.602Z,100148.39
2018-07-28T18:50:26.762Z,100148.71
2018-07-28T18:52:55.917Z,100141.11
2018-07-28T18:55:25.090Z,100145.47
2018-07-28T18:57:54.253Z,100144.06
2018-07-28T19:00:23.350Z,100151.98
2018-07-28T19:02:52.476Z,100155.87
2018-07-28T19:05:21.648Z,100164.44
2018-07-28T19:07:50.852Z,100166.45
2018-07-28T19:10:20.033Z,100174.30
2018-07-28T19:12:54.418Z,100176.03
2018-07-28T19:15:23.574Z,100187.16
2018-07-28T19:17:57.977Z,100188.50
2018-07-28T19:20:27.110Z,100201.75
2018-07-28T19:23:01.505Z,100202.00
2018-07-28T19:25:30.688Z,100210.14
2018-07-28T19:28:05.051Z,100214.53
2018-07-28T19:30:34.250Z,100219.33
2018-07-28T19:33:03.425Z,100227.25
2018-07-28T19:35:37.837Z,100224.12
2018-07-28T19:38:07.199Z,100237.70
2018-07-28T19:40:36.374Z,100258.41
2018-07-28T19:43:05.526Z,100277.37
2018-07-28T19:45:34.630Z,100291.42
2018-07-28T19:48:03.753Z,100284.29
2018-07-28T19:50:32.927Z,100301.95
2018-07-28T19:53:02.402Z,100316.08
2018-07-28T19:55:31.550Z,100312.22
2018-07-28T19:58:00.751Z,100295.17
2018-07-28T20:00:29.901Z,100295.49
2018-07-28T20:02:59.043Z,100313.18
2018-07-28T20:05:28.230Z,100339.83
2018-07-28T20:07:57.334Z,100357.03
2018-07-28T20:10:26.486Z,100377.93
2018-07-28T20:12:55.598Z,100384.20
2018-07-28T20:15:24.737Z,100381.46
2018-07-28T20:17:53.916Z,100394.74
2018-07-28T20:20:23.093Z,100398.70
2018-07-28T20:22:52.248Z,100403.02
2018-07-28T20:25:21.364Z,100406.86
2018-07-28T20:27:50.541Z,100406.75
2018-07-28T20:30:19.733Z,100402.23
2018-07-28T20:32:48.881Z,100406.14
2018-07-28T20:35:18.073Z,100405.42
2018-07-28T20:37:47.246Z,100401.25
2018-07-28T20:40:16.474Z,100399.70
2018-07-28T20:42:45.590Z,100399.05
2018-07-28T20:45:14.795Z,100400.97
2018-07-28T20:47:43.973Z,100399.70
2018-07-28T20:50:13.102Z,100406.75
2018-07-28T20:52:42.258Z,100410.68
2018-07-28T20:55:11.488Z,100404.49
2018-07-28T20:57:40.616Z,100411.55
2018-07-28T21:00:09.746Z,100408.09
2018-07-28T21:02:38.850Z,100403.45
2018-07-28T21:05:07.956Z,100405.30
2018-07-28T21:07:37.082Z,100400.29
2018-07-28T21:10:06.388Z,100397.44
2018-07-28T21:12:35.566Z,100400.81
2018-07-28T21:15:05.032Z,100405.08
2018-07-28T21:17:34.201Z,100401.48
2018-07-28T21:20:03.347Z,100404.15
2018-07-28T21:22:32.454Z,100400.62
2018-07-28T21:25:01.570Z,100395.17
2018-07-28T21:27:30.645Z,100393.77
2018-07-28T21:29:59.776Z,100395.97
2018-07-28T21:32:28.862Z,100404.70
2018-07-28T21:34:57.973Z,100406.67
2018-07-28T21:37:27.081Z,100406.95
2018-07-28T21:39:56.168Z,100417.47
2018-07-28T21:42:25.321Z,100430.66
2018-07-28T21:44:54.669Z,100427.84
2018-07-28T21:47:23.821Z,100430.24
2018-07-28T21:49:52.922Z,100434.34
2018-07-28T21:52:22.099Z,100434.08
2018-07-28T21:54:51.342Z,100426.23
2018-07-28T21:57:20.661Z,100425.59
2018-07-28T21:59:49.814Z,100424.67
2018-07-28T22:02:18.975Z,100433.06
2018-07-28T22:04:48.057Z,100443.69
2018-07-28T22:07:17.206Z,100445.02
2018-07-28T22:09:46.262Z,100450.28
2018-07-28T22:12:15.398Z,100454.22
2018-07-28T22:14:44.493Z,100454.15
2018-07-28T22:17:13.613Z,100455.72
2018-07-28T22:19:42.753Z,100464.52
2018-07-28T22:22:11.881Z,100451.19
2018-07-28T22:24:40.997Z,100452.59
2018-07-28T22:27:10.086Z,100454.39
2018-07-28T22:29:39.181Z,100456.28
2018-07-28T22:32:08.294Z,100459.02
2018-07-28T22:34:37.409Z,100458.28
2018-07-28T22:37:06.609Z,100455.31
2018-07-28T22:39:35.767Z,100453.64
2018-07-28T22:42:04.901Z,100464.87
2018-07-28T22:44:34.018Z,100467.20
2018-07-28T22:47:03.112Z,100474.86
2018-07-28T22:49:32.780Z,100477.12
2018-07-28T22:52:02.041Z,100481.52
2018-07-28T22:54:31.121Z,100494.50
2018-07-28T22:57:00.314Z,100500.77
2018-07-28T22:59:29.442Z,100504.02
2018-07-28T23:01:58.548Z,100509.50
2018-07-28T23:04:27.633Z,100525.27
2018-07-28T23:06:56.731Z,100529.52
2018-07-28T23:09:25.855Z,100536.92
2018-07-28T23:11:54.963Z,100535.83
2018-07-28T23:14:24.093Z,100543.17
2018-07-28T23:16:53.180Z,100545.95
2018-07-28T23:19:22.279Z,100559.04
2018-07-28T23:21:51.382Z,100564.28
2018-07-28T23:24:20.495Z,100572.53
2018-07-28T23:26:49.577Z,100572.39
2018-07-28T23:29:18.670Z,100576.55
2018-07-28T23:31:47.782Z,100579.53
2018-07-28T23:34:16.874Z,100579.23
2018-07-28T23:36:46.073Z,100590.92
2018-07-28T23:39:15.157Z,100592.71
2018-07-28T23:41:44.278Z,100593.23
2018-07-28T23:44:13.357Z,100606.07
2018-07-28T23:46:42.504Z,100595.89
2018-07-28T23:49:11.688Z,100603.47
2018-07-28T23:51:40.782Z,100601.32
2018-07-28T23:54:09.861Z,100584.95
2018-07-28T23:56:39.010Z,100600.45
2018-07-28T23:59:08.122Z,100609.85
